sensor_id;sensor_type;location;lat;lon;timestamp;pressure;altitude;pressure_sealevel;temperature;humidity
11987;BME280;6053;51.382;6.768;2022-09-01T00:00:44;101669.19;;;19.21;54.93
11987;BME280;6053;51.382;6.768;2022-09-01T00:03:16;101658.28;;;19.62;54.68
11987;BME280;6053;51.382;6.768;2022-09-01T00:05:45;101659.13;;;20.15;54.29
11987;BME280;6053;51.382;6.768;2022-09-01T00:08:15;101661.84;;;20.93;53.37
11987;BME280;6053;51.382;6.768;2022-09-01T00:10:44;101650.06;;;21.37;53.22
11987;BME280;6053;51.382;6.768;2022-09-01T00:13:13;101658.75;;;21.15;51.53
11987;BME280;6053;51.382;6.768;2022-09-01T00:15:43;101663.81;;;21.33;50.11
11987;BME280;6053;51.382;6.768;2022-09-01T00:18:12;101657.34;;;21.33;52.87
11987;BME280;6053;51.382;6.768;2022-09-01T00:20:41;101658.47;;;21.42;52.92
11987;BME280;6053;51.382;6.768;2022-09-01T00:23:10;101660.72;;;21.35;50.93
11987;BME280;6053;51.382;6.768;2022-09-01T00:25:38;101660.72;;;21.30;51.36
11987;BME280;6053;51.382;6.768;2022-09-01T00:28:07;101660.16;;;21.12;54.00
11987;BME280;6053;51.382;6.768;2022-09-01T00:30:35;101666.91;;;20.86;51.88
11987;BME280;6053;51.382;6.768;2022-09-01T00:33:05;101662.94;;;20.56;52.24
11987;BME280;6053;51.382;6.768;2022-09-01T00:35:34;101662.59;;;20.47;55.19
11987;BME280;6053;51.382;6.768;2022-09-01T00:38:04;101660.16;;;21.33;53.87
11987;BME280;6053;51.382;6.768;2022-09-01T00:40:33;101669.34;;;19.84;53.55
11987;BME280;6053;51.382;6.768;2022-09-01T00:43:11;101664.66;;;20.73;56.06
11987;BME280;6053;51.382;6.768;2022-09-01T00:45:40;101664.38;;;21.15;53.20
11987;BME280;6053;51.382;6.768;2022-09-01T00:48:10;101661.00;;;21.28;51.42
11987;BME280;6053;51.382;6.768;2022-09-01T00:50:41;101659.84;;;21.65;53.37
11987;BME280;6053;51.382;6.768;2022-09-01T00:53:15;101655.19;;;22.15;50.89
11987;BME280;6053;51.382;6.768;2022-09-01T00:55:43;101658.00;;;22.05;52.17
11987;BME280;6053;51.382;6.768;2022-09-01T00:58:12;101655.88;;;21.71;49.97
11987;BME280;6053;51.382;6.768;2022-09-01T01:00:48;101650.63;;;21.44;53.55
11987;BME280;6053;51.382;6.768;2022-09-01T01:03:20;101651.53;;;22.09;51.90
11987;BME280;6053;51.382;6.768;2022-09-01T01:05:54;101659.34;;;22.23;49.33
11987;BME280;6053;51.382;6.768;2022-09-01T01:08:29;101652.97;;;22.07;51.06
11987;BME280;6053;51.382;6.768;2022-09-01T01:11:01;101658.75;;;21.15;50.15
11987;BME280;6053;51.382;6.768;2022-09-01T01:13:29;101652.59;;;21.38;53.33
11987;BME280;6053;51.382;6.768;2022-09-01T01:16:02;101648.94;;;21.02;54.04
11987;BME280;6053;51.382;6.768;2022-09-01T01:18:43;101657.28;;;20.46;52.64
11987;BME280;6053;51.382;6.768;2022-09-01T01:21:17;101644.34;;;20.40;56.59
11987;BME280;6053;51.382;6.768;2022-09-01T01:24:17;101654.03;;;20.01;54.79
11987;BME280;6053;51.382;6.768;2022-09-01T01:26:45;101645.66;;;18.84;58.15
11987;BME280;6053;51.382;6.768;2022-09-01T01:29:14;101648.19;;;19.55;59.29
11987;BME280;6053;51.382;6.768;2022-09-01T01:31:44;101647.22;;;20.55;57.02
11987;BME280;6053;51.382;6.768;2022-09-01T01:34:13;101654.84;;;18.80;59.22
11987;BME280;6053;51.382;6.768;2022-09-01T01:36:44;101646.06;;;19.78;58.01
11987;BME280;6053;51.382;6.768;2022-09-01T01:39:18;101651.38;;;18.95;61.24
11987;BME280;6053;51.382;6.768;2022-09-01T01:41:47;101656.50;;;19.45;57.37
11987;BME280;6053;51.382;6.768;2022-09-01T01:44:19;101661.75;;;19.74;56.76
11987;BME280;6053;51.382;6.768;2022-09-01T01:46:50;101661.00;;;19.09;59.65
11987;BME280;6053;51.382;6.768;2022-09-01T01:49:22;101664.25;;;19.33;60.29
11987;BME280;6053;51.382;6.768;2022-09-01T01:51:53;101662.50;;;18.63;60.56
11987;BME280;6053;51.382;6.768;2022-09-01T01:54:24;101663.72;;;19.36;60.77
11987;BME280;6053;51.382;6.768;2022-09-01T01:56:55;101678.09;;;19.92;59.48
11987;BME280;6053;51.382;6.768;2022-09-01T01:59:25;101670.78;;;19.86;58.31
11987;BME280;6053;51.382;6.768;2022-09-01T02:01:56;101678.63;;;19.47;62.19
11987;BME280;6053;51.382;6.768;2022-09-01T02:07:00;101668.31;;;20.05;59.45
11987;BME280;6053;51.382;6.768;2022-09-01T02:09:30;101664.81;;;20.45;56.88
11987;BME280;6053;51.382;6.768;2022-09-01T02:11:58;101660.97;;;20.82;57.34
11987;BME280;6053;51.382;6.768;2022-09-01T02:14:27;101671.38;;;21.33;55.97
11987;BME280;6053;51.382;6.768;2022-09-01T02:16:56;101663.78;;;21.28;55.81
11987;BME280;6053;51.382;6.768;2022-09-01T02:19:24;101667.38;;;21.75;52.75
11987;BME280;6053;51.382;6.768;2022-09-01T02:21:53;101672.72;;;21.76;51.38
11987;BME280;6053;51.382;6.768;2022-09-01T02:24:22;101665.78;;;21.53;52.88
11987;BME280;6053;51.382;6.768;2022-09-01T02:26:53;101674.19;;;21.48;55.07
11987;BME280;6053;51.382;6.768;2022-09-01T02:29:24;101669.97;;;21.25;55.22
11987;BME280;6053;51.382;6.768;2022-09-01T02:31:56;101672.50;;;21.27;52.58
11987;BME280;6053;51.382;6.768;2022-09-01T02:34:26;101668.88;;;21.11;54.95
11987;BME280;6053;51.382;6.768;2022-09-01T02:36:56;101668.22;;;21.75;54.20
11987;BME280;6053;51.382;6.768;2022-09-01T02:39:28;101666.59;;;21.54;53.81
11987;BME280;6053;51.382;6.768;2022-09-01T02:42:00;101667.34;;;21.85;53.76
11987;BME280;6053;51.382;6.768;2022-09-01T02:44:29;101664.53;;;21.90;53.75
11987;BME280;6053;51.382;6.768;2022-09-01T02:46:59;101658.94;;;21.90;53.61
11987;BME280;6053;51.382;6.768;2022-09-01T02:49:28;101658.59;;;22.07;53.24
11987;BME280;6053;51.382;6.768;2022-09-01T02:51:58;101661.34;;;22.22;52.44
11987;BME280;6053;51.382;6.768;2022-09-01T02:54:30;101663.34;;;22.06;52.82
11987;BME280;6053;51.382;6.768;2022-09-01T02:57:01;101661.22;;;21.73;53.44
11987;BME280;6053;51.382;6.768;2022-09-01T02:59:30;101659.72;;;21.96;53.46
11987;BME280;6053;51.382;6.768;2022-09-01T03:02:01;101659.19;;;21.94;53.39
11987;BME280;6053;51.382;6.768;2022-09-01T03:04:29;101666.78;;;21.88;53.13
11987;BME280;6053;51.382;6.768;2022-09-01T03:07:02;101666.34;;;21.45;53.35
11987;BME280;6053;51.382;6.768;2022-09-01T03:09:30;101665.66;;;21.89;53.50
11987;BME280;6053;51.382;6.768;2022-09-01T03:12:03;101663.81;;;21.38;54.91
11987;BME280;6053;51.382;6.768;2022-09-01T03:14:33;101661.25;;;21.57;53.64
11987;BME280;6053;51.382;6.768;2022-09-01T03:17:02;101670.16;;;21.85;52.12
11987;BME280;6053;51.382;6.768;2022-09-01T03:19:30;101661.25;;;20.70;52.96
11987;BME280;6053;51.382;6.768;2022-09-01T03:22:08;101665.16;;;20.54;56.57
11987;BME280;6053;51.382;6.768;2022-09-01T03:24:36;101670.31;;;19.62;57.12
11987;BME280;6053;51.382;6.768;2022-09-01T03:27:06;101657.63;;;20.70;57.82
11987;BME280;6053;51.382;6.768;2022-09-01T03:29:37;101670.81;;;21.36;55.26
11987;BME280;6053;51.382;6.768;2022-09-01T03:32:06;101670.56;;;21.37;55.42
11987;BME280;6053;51.382;6.768;2022-09-01T03:34:35;101668.28;;;20.99;54.59
11987;BME280;6053;51.382;6.768;2022-09-01T03:37:04;101675.53;;;20.59;55.60
11987;BME280;6053;51.382;6.768;2022-09-01T03:39:34;101666.59;;;20.77;56.71
11987;BME280;6053;51.382;6.768;2022-09-01T03:42:03;101679.22;;;20.95;55.48
11987;BME280;6053;51.382;6.768;2022-09-01T03:44:36;101667.06;;;19.75;54.62
11987;BME280;6053;51.382;6.768;2022-09-01T03:47:07;101663.91;;;20.19;55.87
11987;BME280;6053;51.382;6.768;2022-09-01T03:49:41;101665.41;;;19.80;56.97
11987;BME280;6053;51.382;6.768;2022-09-01T03:52:11;101664.63;;;19.47;59.43
11987;BME280;6053;51.382;6.768;2022-09-01T03:54:42;101661.97;;;19.25;61.15
11987;BME280;6053;51.382;6.768;2022-09-01T03:57:12;101657.81;;;17.97;60.97
11987;BME280;6053;51.382;6.768;2022-09-01T03:59:42;101657.13;;;18.83;64.22
11987;BME280;6053;51.382;6.768;2022-09-01T04:02:11;101662.56;;;18.95;58.36
11987;BME280;6053;51.382;6.768;2022-09-01T04:04:41;101657.31;;;17.78;61.36
11987;BME280;6053;51.382;6.768;2022-09-01T04:07:10;101661.22;;;18.21;64.98
11987;BME280;6053;51.382;6.768;2022-09-01T04:09:45;101647.50;;;18.47;65.46
11987;BME280;6053;51.382;6.768;2022-09-01T04:12:14;101654.16;;;17.75;64.42
11987;BME280;6053;51.382;6.768;2022-09-01T04:14:44;101645.75;;;18.13;64.40
11987;BME280;6053;51.382;6.768;2022-09-01T04:17:14;101647.66;;;16.80;67.59
11987;BME280;6053;51.382;6.768;2022-09-01T04:20:12;101647.25;;;17.22;69.59
11987;BME280;6053;51.382;6.768;2022-09-01T04:22:47;101647.59;;;17.81;64.84
11987;BME280;6053;51.382;6.768;2022-09-01T04:25:17;101647.88;;;16.61;69.58
11987;BME280;6053;51.382;6.768;2022-09-01T04:27:49;101655.63;;;16.59;68.75
11987;BME280;6053;51.382;6.768;2022-09-01T04:30:23;101651.16;;;16.87;67.76
11987;BME280;6053;51.382;6.768;2022-09-01T04:32:58;101650.44;;;17.13;67.07
11987;BME280;6053;51.382;6.768;2022-09-01T04:35:26;101654.56;;;17.44;70.42
11987;BME280;6053;51.382;6.768;2022-09-01T04:38:04;101650.06;;;17.43;66.68
11987;BME280;6053;51.382;6.768;2022-09-01T04:40:37;101653.41;;;16.90;71.42
11987;BME280;6053;51.382;6.768;2022-09-01T04:43:07;101652.88;;;17.27;71.51
11987;BME280;6053;51.382;6.768;2022-09-01T04:45:37;101648.16;;;16.77;69.23
11987;BME280;6053;51.382;6.768;2022-09-01T04:48:07;101656.03;;;17.13;73.53
11987;BME280;6053;51.382;6.768;2022-09-01T04:50:38;101660.53;;;16.69;70.14
11987;BME280;6053;51.382;6.768;2022-09-01T04:53:07;101653.53;;;17.67;64.88
11987;BME280;6053;51.382;6.768;2022-09-01T04:55:39;101650.84;;;17.95;68.82
11987;BME280;6053;51.382;6.768;2022-09-01T04:58:11;101651.25;;;17.64;67.09
11987;BME280;6053;51.382;6.768;2022-09-01T05:00:47;101654.91;;;17.48;69.03
11987;BME280;6053;51.382;6.768;2022-09-01T05:03:18;101652.00;;;17.04;70.71
11987;BME280;6053;51.382;6.768;2022-09-01T05:05:49;101654.63;;;16.65;72.94
11987;BME280;6053;51.382;6.768;2022-09-01T05:08:21;101653.78;;;17.10;68.27
11987;BME280;6053;51.382;6.768;2022-09-01T05:10:52;101661.88;;;16.21;72.50
11987;BME280;6053;51.382;6.768;2022-09-01T05:13:23;101669.38;;;16.94;69.89
11987;BME280;6053;51.382;6.768;2022-09-01T05:16:03;101671.47;;;16.13;76.17
11987;BME280;6053;51.382;6.768;2022-09-01T05:18:32;101666.00;;;17.09;72.20
11987;BME280;6053;51.382;6.768;2022-09-01T05:21:05;101663.59;;;16.10;73.52
11987;BME280;6053;51.382;6.768;2022-09-01T05:23:37;101669.38;;;15.56;77.73
11987;BME280;6053;51.382;6.768;2022-09-01T05:26:12;101667.97;;;17.64;68.28
11987;BME280;6053;51.382;6.768;2022-09-01T05:28:44;101671.41;;;16.99;69.84
11987;BME280;6053;51.382;6.768;2022-09-01T05:31:15;101664.09;;;16.64;76.04
11987;BME280;6053;51.382;6.768;2022-09-01T05:33:46;101667.72;;;15.96;74.85
11987;BME280;6053;51.382;6.768;2022-09-01T05:36:18;101677.47;;;16.22;73.86
11987;BME280;6053;51.382;6.768;2022-09-01T05:38:48;101672.03;;;16.15;73.72
11987;BME280;6053;51.382;6.768;2022-09-01T05:41:19;101674.53;;;17.19;72.99
11987;BME280;6053;51.382;6.768;2022-09-01T05:43:50;101675.38;;;16.29;73.04
11987;BME280;6053;51.382;6.768;2022-09-01T05:46:27;101681.78;;;16.58;75.25
11987;BME280;6053;51.382;6.768;2022-09-01T05:48:57;101673.91;;;16.67;72.20
11987;BME280;6053;51.382;6.768;2022-09-01T05:51:28;101672.91;;;17.57;68.21
11987;BME280;6053;51.382;6.768;2022-09-01T05:54:13;101676.47;;;17.02;70.01
11987;BME280;6053;51.382;6.768;2022-09-01T05:56:43;101671.50;;;16.87;73.50
11987;BME280;6053;51.382;6.768;2022-09-01T05:59:13;101668.28;;;16.50;71.64
11987;BME280;6053;51.382;6.768;2022-09-01T06:01:53;101679.78;;;17.88;68.47
11987;BME280;6053;51.382;6.768;2022-09-01T06:04:23;101684.31;;;18.38;67.30
11987;BME280;6053;51.382;6.768;2022-09-01T06:06:52;101685.88;;;19.11;65.07
11987;BME280;6053;51.382;6.768;2022-09-01T06:09:36;101678.69;;;17.73;70.83
11987;BME280;6053;51.382;6.768;2022-09-01T06:12:06;101684.44;;;19.77;61.59
11987;BME280;6053;51.382;6.768;2022-09-01T06:14:34;101678.38;;;19.53;59.75
11987;BME280;6053;51.382;6.768;2022-09-01T06:17:04;101687.16;;;18.71;62.97
11987;BME280;6053;51.382;6.768;2022-09-01T06:19:37;101682.50;;;18.27;63.62
11987;BME280;6053;51.382;6.768;2022-09-01T06:22:08;101676.91;;;17.83;66.64
11987;BME280;6053;51.382;6.768;2022-09-01T06:24:37;101680.81;;;19.40;64.15
11987;BME280;6053;51.382;6.768;2022-09-01T06:27:11;101679.31;;;20.17;60.55
11987;BME280;6053;51.382;6.768;2022-09-01T06:29:39;101682.31;;;20.93;56.99
11987;BME280;6053;51.382;6.768;2022-09-01T06:32:10;101680.25;;;21.86;53.21
11987;BME280;6053;51.382;6.768;2022-09-01T06:34:40;101675.03;;;22.39;51.07
11987;BME280;6053;51.382;6.768;2022-09-01T06:37:10;101687.78;;;22.06;52.48
11987;BME280;6053;51.382;6.768;2022-09-01T06:39:40;101677.34;;;22.27;51.99
11987;BME280;6053;51.382;6.768;2022-09-01T06:42:10;101687.38;;;21.58;52.75
11987;BME280;6053;51.382;6.768;2022-09-01T06:44:40;101675.81;;;21.75;52.29
11987;BME280;6053;51.382;6.768;2022-09-01T06:47:10;101691.88;;;21.08;55.03
11987;BME280;6053;51.382;6.768;2022-09-01T06:49:38;101690.56;;;19.69;58.58
11987;BME280;6053;51.382;6.768;2022-09-01T06:52:07;101687.09;;;21.29;54.30
11987;BME280;6053;51.382;6.768;2022-09-01T06:54:39;101684.00;;;21.25;53.21
11987;BME280;6053;51.382;6.768;2022-09-01T06:57:10;101687.03;;;21.85;51.75
11987;BME280;6053;51.382;6.768;2022-09-01T06:59:59;101693.81;;;21.23;51.95
11987;BME280;6053;51.382;6.768;2022-09-01T07:02:32;101689.03;;;21.69;52.44
11987;BME280;6053;51.382;6.768;2022-09-01T07:05:00;101691.88;;;21.38;53.47
11987;BME280;6053;51.382;6.768;2022-09-01T07:07:29;101691.31;;;21.01;53.04
11987;BME280;6053;51.382;6.768;2022-09-01T07:10:21;101691.31;;;21.01;53.70
11987;BME280;6053;51.382;6.768;2022-09-01T07:12:51;101686.53;;;21.06;54.16
11987;BME280;6053;51.382;6.768;2022-09-01T07:15:42;101696.22;;;22.71;48.00
11987;BME280;6053;51.382;6.768;2022-09-01T07:18:33;101706.03;;;23.81;48.26
11987;BME280;6053;51.382;6.768;2022-09-01T07:21:04;101693.50;;;23.00;47.07
11987;BME280;6053;51.382;6.768;2022-09-01T07:23:53;101694.78;;;22.73;47.98
11987;BME280;6053;51.382;6.768;2022-09-01T07:26:40;101701.09;;;23.63;47.58
11987;BME280;6053;51.382;6.768;2022-09-01T07:29:14;101691.34;;;22.37;48.05
11987;BME280;6053;51.382;6.768;2022-09-01T07:31:44;101684.78;;;23.01;46.81
11987;BME280;6053;51.382;6.768;2022-09-01T07:34:17;101692.41;;;22.96;46.23
11987;BME280;6053;51.382;6.768;2022-09-01T07:37:06;101695.94;;;22.18;46.64
11987;BME280;6053;51.382;6.768;2022-09-01T07:39:54;101699.19;;;22.95;48.39
11987;BME280;6053;51.382;6.768;2022-09-01T07:42:44;101696.94;;;23.84;46.31
11987;BME280;6053;51.382;6.768;2022-09-01T07:45:29;101697.88;;;23.16;46.57
11987;BME280;6053;51.382;6.768;2022-09-01T07:48:00;101697.19;;;22.90;46.88
11987;BME280;6053;51.382;6.768;2022-09-01T07:50:35;101690.00;;;22.24;46.56
11987;BME280;6053;51.382;6.768;2022-09-01T07:53:26;101683.09;;;23.00;45.01
11987;BME280;6053;51.382;6.768;2022-09-01T07:55:59;101688.41;;;23.36;44.55
11987;BME280;6053;51.382;6.768;2022-09-01T07:58:28;101686.88;;;24.69;44.13
11987;BME280;6053;51.382;6.768;2022-09-01T08:00:58;101694.00;;;23.41;43.58
11987;BME280;6053;51.382;6.768;2022-09-01T08:03:30;101693.66;;;23.14;43.72
11987;BME280;6053;51.382;6.768;2022-09-01T08:06:04;101696.69;;;23.22;44.45
11987;BME280;6053;51.382;6.768;2022-09-01T08:08:35;101698.94;;;23.25;44.21
11987;BME280;6053;51.382;6.768;2022-09-01T08:11:04;101692.59;;;22.65;44.82
11987;BME280;6053;51.382;6.768;2022-09-01T08:13:34;101701.50;;;23.80;45.34
11987;BME280;6053;51.382;6.768;2022-09-01T08:16:09;101704.31;;;23.80;43.77
11987;BME280;6053;51.382;6.768;2022-09-01T08:18:46;101700.16;;;24.68;41.85
11987;BME280;6053;51.382;6.768;2022-09-01T08:21:18;101703.50;;;23.80;41.42
11987;BME280;6053;51.382;6.768;2022-09-01T08:23:49;101704.63;;;23.79;43.80
11987;BME280;6053;51.382;6.768;2022-09-01T08:26:19;101695.84;;;24.71;39.38
11987;BME280;6053;51.382;6.768;2022-09-01T08:28:48;101703.56;;;24.22;39.94
11987;BME280;6053;51.382;6.768;2022-09-01T08:31:24;101702.34;;;23.81;43.26
11987;BME280;6053;51.382;6.768;2022-09-01T08:33:57;101696.16;;;24.27;40.62
11987;BME280;6053;51.382;6.768;2022-09-01T08:36:27;101691.19;;;23.70;40.68
11987;BME280;6053;51.382;6.768;2022-09-01T08:38:56;101694.13;;;22.87;42.17
11987;BME280;6053;51.382;6.768;2022-09-01T08:41:35;101693.41;;;23.73;42.93
11987;BME280;6053;51.382;6.768;2022-09-01T08:44:19;101694.13;;;24.32;39.26
11987;BME280;6053;51.382;6.768;2022-09-01T08:46:56;101690.38;;;23.36;40.77
11987;BME280;6053;51.382;6.768;2022-09-01T08:49:27;101688.41;;;24.37;41.56
11987;BME280;6053;51.382;6.768;2022-09-01T08:52:05;101688.28;;;24.48;38.70
11987;BME280;6053;51.382;6.768;2022-09-01T08:54:40;101693.66;;;23.48;39.51
11987;BME280;6053;51.382;6.768;2022-09-01T08:57:14;101692.06;;;23.71;39.54
11987;BME280;6053;51.382;6.768;2022-09-01T08:59:45;101692.22;;;23.21;42.08
11987;BME280;6053;51.382;6.768;2022-09-01T09:02:29;101694.69;;;23.86;40.92
11987;BME280;6053;51.382;6.768;2022-09-01T09:05:06;101698.75;;;24.23;40.57
11987;BME280;6053;51.382;6.768;2022-09-01T09:07:57;101685.66;;;24.56;39.16
11987;BME280;6053;51.382;6.768;2022-09-01T09:10:40;101688.44;;;25.32;37.74
11987;BME280;6053;51.382;6.768;2022-09-01T09:13:20;101683.13;;;24.92;38.71
11987;BME280;6053;51.382;6.768;2022-09-01T09:15:55;101684.25;;;25.90;38.90
11987;BME280;6053;51.382;6.768;2022-09-01T09:18:44;101690.53;;;24.27;37.74
11987;BME280;6053;51.382;6.768;2022-09-01T09:21:26;101677.78;;;25.43;37.53
11987;BME280;6053;51.382;6.768;2022-09-01T09:24:02;101686.47;;;24.94;35.64
11987;BME280;6053;51.382;6.768;2022-09-01T09:26:35;101671.06;;;24.68;37.38
11987;BME280;6053;51.382;6.768;2022-09-01T09:29:11;101669.34;;;25.70;34.72
11987;BME280;6053;51.382;6.768;2022-09-01T09:31:41;101669.44;;;25.65;34.22
11987;BME280;6053;51.382;6.768;2022-09-01T09:34:29;101676.81;;;24.82;34.05
11987;BME280;6053;51.382;6.768;2022-09-01T09:37:15;101675.16;;;23.95;35.63
11987;BME280;6053;51.382;6.768;2022-09-01T09:39:55;101665.16;;;25.21;33.83
11987;BME280;6053;51.382;6.768;2022-09-01T09:42:29;101664.09;;;25.63;32.99
11987;BME280;6053;51.382;6.768;2022-09-01T09:45:03;101662.91;;;24.85;33.95
11987;BME280;6053;51.382;6.768;2022-09-01T09:47:37;101663.53;;;25.80;35.86
11987;BME280;6053;51.382;6.768;2022-09-01T09:50:16;101664.44;;;25.76;33.71
11987;BME280;6053;51.382;6.768;2022-09-01T09:52:46;101652.41;;;24.53;34.86
11987;BME280;6053;51.382;6.768;2022-09-01T09:55:23;101648.09;;;25.59;35.60
11987;BME280;6053;51.382;6.768;2022-09-01T09:57:55;101651.47;;;26.16;33.94
11987;BME280;6053;51.382;6.768;2022-09-01T10:00:30;101638.53;;;26.51;32.41
11987;BME280;6053;51.382;6.768;2022-09-01T10:03:02;101632.63;;;25.98;34.55
11987;BME280;6053;51.382;6.768;2022-09-01T10:05:45;101639.06;;;25.43;33.88
11987;BME280;6053;51.382;6.768;2022-09-01T10:08:38;101628.88;;;26.02;36.62
11987;BME280;6053;51.382;6.768;2022-09-01T10:11:25;101628.47;;;25.35;34.35
11987;BME280;6053;51.382;6.768;2022-09-01T10:14:05;101633.69;;;24.95;34.97
11987;BME280;6053;51.382;6.768;2022-09-01T10:16:38;101619.34;;;25.84;35.41
11987;BME280;6053;51.382;6.768;2022-09-01T10:19:12;101629.16;;;25.13;32.90
11987;BME280;6053;51.382;6.768;2022-09-01T10:21:43;101630.59;;;26.40;32.32
11987;BME280;6053;51.382;6.768;2022-09-01T10:24:21;101625.44;;;24.23;34.59
11987;BME280;6053;51.382;6.768;2022-09-01T10:26:59;101620.34;;;25.61;33.64
11987;BME280;6053;51.382;6.768;2022-09-01T10:29:33;101622.50;;;26.47;32.06
11987;BME280;6053;51.382;6.768;2022-09-01T10:32:17;101623.66;;;24.70;35.14
11987;BME280;6053;51.382;6.768;2022-09-01T10:35:03;101616.72;;;25.14;34.79
11987;BME280;6053;51.382;6.768;2022-09-01T10:37:33;101612.44;;;25.91;34.00
11987;BME280;6053;51.382;6.768;2022-09-01T10:40:14;101620.19;;;24.92;37.10
11987;BME280;6053;51.382;6.768;2022-09-01T10:42:48;101593.88;;;25.71;36.23
11987;BME280;6053;51.382;6.768;2022-09-01T10:45:32;101603.69;;;27.10;33.44
11987;BME280;6053;51.382;6.768;2022-09-01T10:48:25;101609.88;;;25.61;33.88
11987;BME280;6053;51.382;6.768;2022-09-01T10:51:40;101606.63;;;25.40;34.12
11987;BME280;6053;51.382;6.768;2022-09-01T10:54:49;101605.91;;;26.90;35.39
11987;BME280;6053;51.382;6.768;2022-09-01T10:57:49;101605.09;;;26.76;31.00
11987;BME280;6053;51.382;6.768;2022-09-01T11:03:58;101599.84;;;25.09;34.54
11987;BME280;6053;51.382;6.768;2022-09-01T11:06:56;101596.94;;;25.88;34.68
11987;BME280;6053;51.382;6.768;2022-09-01T11:10:09;101596.91;;;25.60;33.59
11987;BME280;6053;51.382;6.768;2022-09-01T11:16:24;101589.75;;;25.22;35.22
11987;BME280;6053;51.382;6.768;2022-09-01T11:19:36;101582.69;;;25.66;37.48
11987;BME280;6053;51.382;6.768;2022-09-01T11:31:24;101573.28;;;25.84;37.26
11987;BME280;6053;51.382;6.768;2022-09-01T11:34:03;101582.69;;;26.79;36.53
11987;BME280;6053;51.382;6.768;2022-09-01T11:36:35;101576.41;;;26.69;33.50
11987;BME280;6053;51.382;6.768;2022-09-01T11:39:07;101573.66;;;26.55;36.44
11987;BME280;6053;51.382;6.768;2022-09-01T11:41:49;101573.41;;;26.88;33.25
11987;BME280;6053;51.382;6.768;2022-09-01T11:44:29;101573.72;;;26.27;35.46
11987;BME280;6053;51.382;6.768;2022-09-01T11:47:03;101566.47;;;26.35;36.67
11987;BME280;6053;51.382;6.768;2022-09-01T11:49:45;101577.31;;;26.19;33.80
11987;BME280;6053;51.382;6.768;2022-09-01T11:52:16;101571.84;;;24.80;36.22
11987;BME280;6053;51.382;6.768;2022-09-01T11:54:45;101564.78;;;25.70;36.47
11987;BME280;6053;51.382;6.768;2022-09-01T11:57:27;101556.56;;;26.60;34.92
11987;BME280;6053;51.382;6.768;2022-09-01T11:59:57;101556.88;;;26.45;35.14
11987;BME280;6053;51.382;6.768;2022-09-01T12:02:30;101562.47;;;25.58;35.70
11987;BME280;6053;51.382;6.768;2022-09-01T12:05:22;101551.59;;;25.93;35.85
11987;BME280;6053;51.382;6.768;2022-09-01T12:07:52;101551.72;;;26.83;34.20
11987;BME280;6053;51.382;6.768;2022-09-01T12:10:28;101551.13;;;27.17;34.74
11987;BME280;6053;51.382;6.768;2022-09-01T12:13:03;101539.16;;;26.98;33.25
11987;BME280;6053;51.382;6.768;2022-09-01T12:15:33;101544.03;;;25.75;37.48
11987;BME280;6053;51.382;6.768;2022-09-01T12:18:13;101540.50;;;25.97;36.37
11987;BME280;6053;51.382;6.768;2022-09-01T12:20:46;101528.63;;;26.67;36.41
11987;BME280;6053;51.382;6.768;2022-09-01T12:23:24;101536.22;;;25.30;38.01
11987;BME280;6053;51.382;6.768;2022-09-01T12:25:55;101533.97;;;26.10;36.80
11987;BME280;6053;51.382;6.768;2022-09-01T12:28:26;101536.41;;;25.20;35.61
11987;BME280;6053;51.382;6.768;2022-09-01T12:30:59;101530.16;;;25.37;36.47
11987;BME280;6053;51.382;6.768;2022-09-01T12:33:35;101522.00;;;25.35;35.75
11987;BME280;6053;51.382;6.768;2022-09-01T12:36:19;101525.97;;;25.90;35.70
11987;BME280;6053;51.382;6.768;2022-09-01T12:38:48;101511.59;;;26.00;35.99
11987;BME280;6053;51.382;6.768;2022-09-01T12:41:26;101511.97;;;26.43;36.12
11987;BME280;6053;51.382;6.768;2022-09-01T12:44:26;101515.44;;;26.40;36.33
11987;BME280;6053;51.382;6.768;2022-09-01T12:46:58;101521.34;;;26.30;34.80
11987;BME280;6053;51.382;6.768;2022-09-01T12:49:36;101523.16;;;26.48;35.50
11987;BME280;6053;51.382;6.768;2022-09-01T12:52:23;101511.84;;;25.34;34.56
11987;BME280;6053;51.382;6.768;2022-09-01T12:55:05;101508.19;;;25.48;36.31
11987;BME280;6053;51.382;6.768;2022-09-01T12:57:37;101497.91;;;25.93;37.66
11987;BME280;6053;51.382;6.768;2022-09-01T13:00:14;101504.38;;;26.30;38.05
11987;BME280;6053;51.382;6.768;2022-09-01T13:02:45;101489.56;;;26.78;36.48
11987;BME280;6053;51.382;6.768;2022-09-01T13:05:35;101501.34;;;26.71;34.00
11987;BME280;6053;51.382;6.768;2022-09-01T13:08:10;101498.44;;;25.81;36.67
11987;BME280;6053;51.382;6.768;2022-09-01T13:10:41;101488.06;;;26.49;36.05
11987;BME280;6053;51.382;6.768;2022-09-01T13:13:12;101494.59;;;26.14;35.01
11987;BME280;6053;51.382;6.768;2022-09-01T13:15:45;101490.03;;;27.02;36.16
11987;BME280;6053;51.382;6.768;2022-09-01T13:18:14;101497.16;;;26.69;32.60
11987;BME280;6053;51.382;6.768;2022-09-01T13:20:44;101485.88;;;27.09;35.60
11987;BME280;6053;51.382;6.768;2022-09-01T13:23:14;101489.25;;;26.79;32.34
11987;BME280;6053;51.382;6.768;2022-09-01T13:25:43;101477.63;;;26.14;37.25
11987;BME280;6053;51.382;6.768;2022-09-01T13:28:13;101471.91;;;26.27;34.05
11987;BME280;6053;51.382;6.768;2022-09-01T13:30:44;101471.63;;;27.14;33.07
11987;BME280;6053;51.382;6.768;2022-09-01T13:33:14;101474.44;;;25.65;33.32
11987;BME280;6053;51.382;6.768;2022-09-01T13:35:48;101466.31;;;26.14;33.23
11987;BME280;6053;51.382;6.768;2022-09-01T13:38:18;101467.00;;;26.95;33.47
11987;BME280;6053;51.382;6.768;2022-09-01T13:40:48;101469.63;;;26.83;34.41
11987;BME280;6053;51.382;6.768;2022-09-01T13:43:18;101460.81;;;25.95;34.47
11987;BME280;6053;51.382;6.768;2022-09-01T13:45:49;101467.00;;;26.42;34.25
11987;BME280;6053;51.382;6.768;2022-09-01T13:48:18;101462.28;;;26.51;33.30
11987;BME280;6053;51.382;6.768;2022-09-01T13:50:50;101451.63;;;25.75;36.35
11987;BME280;6053;51.382;6.768;2022-09-01T13:53:39;101456.84;;;26.41;33.92
11987;BME280;6053;51.382;6.768;2022-09-01T13:56:08;101452.81;;;26.55;33.77